Bookmark and Share
Track history (hours):
 

Larkspur

Operator: Transeuropa Lines

Last reported at 2011-Jul-18 07:03 UTC. Time now 2014-Apr-23 09:39 UTC.
Position N 51°14' E 002°56'.
Warning: this ship's position is years out of date!

NotesDate/timePositionNaut miles runAvg speedWind from/ knotsBaromVisibWave heightAir tempDewpointWater temp
2011-Jul-18 07:03N 51°14' E 002°56'0 0.0
2011-Jul-18 06:33N 51°14' E 002°56'0 0.0
2011-Jul-18 06:03N 51°14' E 002°56'0 0.0
2011-Jul-18 05:33N 51°14' E 002°56'3 6.5
2011-Jul-18 05:03N 51°16' E 002°52'614.3
2011-Jul-18 04:36N 51°14' E 002°41'814.9
2011-Jul-18 04:04N 51°12' E 002°29'2213.6
2011-Jul-18 02:26N 51°17' E 001°55'513.9
2011-Jul-18 02:03N 51°19' E 001°48'714.9
2011-Jul-18 01:33N 51°20' E 001°36'713.3
2011-Jul-18 01:03N 51°20' E 001°25'0 0.0
2011-Jul-18 00:29N 51°20' E 001°25'0 0.0
2011-Jul-17 23:56N 51°20' E 001°25'0 0.3
2011-Jul-17 23:33N 51°20' E 001°25'611.7
2011-Jul-17 23:03N 51°20' E 001°35'713.0
2011-Jul-17 22:33N 51°20' E 001°45'612.8
2011-Jul-17 22:03N 51°17' E 001°54'612.6
2011-Jul-17 21:33N 51°15' E 002°04'1212.1
2011-Jul-17 20:33N 51°09' E 002°21'713.8
2011-Jul-17 20:03N 51°12' E 002°31'713.1
2011-Jul-17 19:33N 51°15' E 002°41'612.5
2011-Jul-17 19:03N 51°15' E 002°51'3 6.6
2011-Jul-17 18:32N 51°14' E 002°56'0 0.0
2011-Jul-17 18:02N 51°14' E 002°56'0 0.0
2011-Jul-17 17:32N 51°14' E 002°56'0 0.0
2011-Jul-17 17:03N 51°14' E 002°56'3 6.4
2011-Jul-17 16:33N 51°16' E 002°52'714.6
2011-Jul-17 16:04N 51°14' E 002°40'815.1
2011-Jul-17 15:34N 51°12' E 002°29'2113.2
2011-Jul-17 13:59N 51°17' E 001°57'614.3
2011-Jul-17 13:33N 51°19' E 001°48'714.4
2011-Jul-17 13:03N 51°20' E 001°36'713.9
2011-Jul-17 12:34N 51°20' E 001°25'0 0.4
2011-Jul-17 12:02N 51°20' E 001°25'0 0.0
2011-Jul-17 11:32N 51°20' E 001°25'0 0.0
2011-Jul-17 11:02N 51°20' E 001°25'3 6.8
2011-Jul-17 10:35N 51°20' E 001°30'713.0
2011-Jul-17 10:03N 51°20' E 001°41'713.3
2011-Jul-17 09:33N 51°18' E 001°52'613.4
2011-Jul-17 09:03N 51°16' E 002°01'1413.1
2011-Jul-17 08:00N 51°09' E 002°21'714.9
2011-Jul-17 07:33N 51°12' E 002°30'714.4
2011-Jul-17 07:03N 51°15' E 002°41'713.8
2011-Jul-17 06:33N 51°15' E 002°52'3 5.5
2011-Jul-17 06:03N 51°14' E 002°56'0 0.0
2011-Jul-17 05:33N 51°14' E 002°56'0 0.0
2011-Jul-17 05:03N 51°14' E 002°56'0 0.0
2011-Jul-17 04:36N 51°14' E 002°56'0 0.0
2011-Jul-17 04:03N 51°14' E 002°56'0 0.0
2011-Jul-17 03:33N 51°14' E 002°56'0 0.0
2011-Jul-17 03:03N 51°14' E 002°56'0 0.0
2011-Jul-17 02:33N 51°14' E 002°56'0 0.0
2011-Jul-17 02:03N 51°14' E 002°56'0 0.0
2011-Jul-17 01:33N 51°14' E 002°56'0 0.0
2011-Jul-17 01:03N 51°14' E 002°56'0 0.0
2011-Jul-17 00:33N 51°14' E 002°56'0 0.0
2011-Jul-17 00:15N 51°14' E 002°56'0 0.0
2011-Jul-16 22:42N 51°14' E 002°56'0 0.0
2011-Jul-16 21:30N 51°14' E 002°56'0 0.0
2011-Jul-16 20:33N 51°14' E 002°56'0 0.0
2011-Jul-16 19:57N 51°14' E 002°56'0 0.0
2011-Jul-16 17:48N 51°14' E 002°56'0 0.0
2011-Jul-16 04:36N 51°14' E 002°56'0 0.0
2011-Jul-15 22:57N 51°14' E 002°56'0 0.0
2011-Jul-15 22:33N 51°14' E 002°56'0 0.0
2011-Jul-15 20:59N 51°14' E 002°56'4 9.0
2011-Jul-15 20:32N 51°15' E 002°50'4 0.2
2011-Jul-14 20:06N 51°15' E 002°43'513.7
2011-Jul-14 19:45N 51°16' E 002°51'52 2.0
2011-Jul-13 17:21N 51°20' E 001°28'  

Dump ship's entire track history

sailing weather and tide predictions

Larkspur — C6BR6 — position and weather